Terminal Aerodrome Forecast
Issued by NWS Louisville, KY

Home | Current Version | Previous Version | Text Only | Print | Product List | Glossary On
Versions: 1 2 3 4 5 6 7 8 9 10 11 12
211
FTUS43 KLMK 121720
TAFBWG
TAF
KBWG 121720Z 1218/1318 31014G20KT P6SM SCT040
     FM130000 28005KT P6SM FEW250
     FM130900 21006KT P6SM FEW250
     FM131500 21012G18KT P6SM FEW150=

USA.gov is the U.S. government's official web portal to all federal, state and local government web resources and services.